Time;durP1;ratioP1;P1;durP2;ratioP2;P2;SDS_P1;SDS_P2;PMS_P1;PMS_P2;Temp;Humidity;BMP_temperature;BMP_pressure;BME280_temperature;BME280_humidity;BME280_pressure;Samples;Min_cycle;Max_cycle;Signal;HPM_P1;HPM_P2
2023/04/12 00:01:48;;;;;;;8.70;2.38;;;7.30;99.90;;;;;;5083822;28;20079;-89
2023/04/12 00:04:15;;;;;;;6.05;2.35;;;7.30;99.90;;;;;;5066994;28;20107;-89
2023/04/12 00:06:47;;;;;;;12.00;2.80;;;7.30;99.90;;;;;;5066503;28;20036;-89
2023/04/12 00:09:14;;;;;;;5.70;2.20;;;7.30;99.90;;;;;;5066870;28;20039;-89
2023/04/12 00:11:40;;;;;;;8.95;2.25;;;7.30;99.90;;;;;;5066315;28;20048;-89
2023/04/12 00:14:06;;;;;;;8.27;2.60;;;7.30;99.90;;;;;;5064897;28;20047;-89
2023/04/12 00:16:31;;;;;;;8.38;2.50;;;7.30;99.90;;;;;;5082541;28;20040;-89
2023/04/12 00:18:58;;;;;;;8.50;2.53;;;7.30;99.90;;;;;;5064354;28;20032;-89
2023/04/12 00:21:27;;;;;;;9.65;2.88;;;7.30;99.90;;;;;;5081020;28;20036;-89
2023/04/12 00:23:53;;;;;;;7.78;2.50;;;7.40;99.90;;;;;;5063297;28;20043;-89
2023/04/12 00:26:20;;;;;;;5.20;2.33;;;7.40;99.90;;;;;;5084350;28;20368;-89
2023/04/12 00:28:46;;;;;;;6.80;2.28;;;7.50;99.90;;;;;;5064857;28;20034;-89
2023/04/12 00:31:15;;;;;;;7.38;2.58;;;7.50;99.90;;;;;;5065831;28;20040;-89
2023/04/12 00:33:40;;;;;;;8.82;2.88;;;7.60;99.90;;;;;;5081680;28;20420;-89
2023/04/12 00:36:07;;;;;;;10.48;2.60;;;7.60;99.90;;;;;;5079573;28;20073;-90
2023/04/12 00:38:32;;;;;;;8.65;2.88;;;7.70;99.90;;;;;;5078357;28;20046;-88
2023/04/12 00:40:59;;;;;;;8.15;2.50;;;7.70;99.90;;;;;;5082613;28;20028;-89
2023/04/12 00:43:26;;;;;;;10.38;3.88;;;7.70;99.90;;;;;;5065860;28;20119;-88
2023/04/12 00:45:55;;;;;;;8.43;2.85;;;7.80;99.90;;;;;;5062005;28;20040;-89
2023/04/12 00:48:22;;;;;;;11.27;2.85;;;7.90;99.90;;;;;;5078759;28;20309;-90
2023/04/12 00:50:48;;;;;;;10.98;2.80;;;7.90;99.90;;;;;;5064534;28;20789;-89
2023/04/12 00:53:14;;;;;;;11.68;3.50;;;7.90;99.90;;;;;;5080277;28;20051;-89
2023/04/12 00:55:43;;;;;;;9.85;2.78;;;7.90;99.90;;;;;;5065563;28;20555;-89
2023/04/12 00:58:09;;;;;;;8.50;2.88;;;7.90;99.90;;;;;;5082782;28;20397;-89
2023/04/12 01:00:35;;;;;;;7.88;2.80;;;7.90;99.90;;;;;;5080667;28;20108;-89
2023/04/12 01:03:02;;;;;;;8.55;3.20;;;7.90;99.90;;;;;;5064506;28;20502;-89
2023/04/12 01:05:29;;;;;;;12.57;2.80;;;7.90;99.90;;;;;;5066049;28;20040;-89
2023/04/12 01:08:13;;;;;;;9.77;3.10;;;8.00;99.90;;;;;;5065850;28;20116;-89
2023/04/12 01:10:55;;;;;;;9.65;2.70;;;8.00;99.90;;;;;;5068518;28;20402;-90
2023/04/12 01:13:24;;;;;;;7.50;2.72;;;8.10;99.90;;;;;;5077866;28;20032;-89
2023/04/12 01:16:12;;;;;;;8.98;2.88;;;8.10;99.90;;;;;;5067180;28;20058;-89
2023/04/12 01:18:41;;;;;;;8.10;2.60;;;8.10;99.90;;;;;;5067077;28;20040;-89
2023/04/12 01:21:22;;;;;;;11.32;2.80;;;8.20;99.90;;;;;;5082737;28;20475;-89
2023/04/12 01:24:25;;;;;;;9.18;2.83;;;8.10;99.90;;;;;;5084539;28;20146;-89
2023/04/12 01:26:56;;;;;;;8.20;2.97;;;8.20;99.90;;;;;;5068997;28;20031;-89
2023/04/12 01:29:25;;;;;;;5.95;2.75;;;8.20;99.90;;;;;;5079745;28;20044;-90
2023/04/12 01:32:00;;;;;;;8.13;2.40;;;8.30;99.90;;;;;;5102936;27;20347;-89
2023/04/12 01:34:28;;;;;;;12.23;2.67;;;8.30;99.90;;;;;;5103226;27;20036;-90
2023/04/12 01:36:55;;;;;;;12.07;2.63;;;8.20;99.90;;;;;;5069630;28;20185;-90
2023/04/12 01:39:21;;;;;;;8.88;2.70;;;8.20;99.90;;;;;;5086042;28;20048;-90
2023/04/12 01:41:47;;;;;;;5.72;2.80;;;8.20;99.90;;;;;;5084397;28;20032;-89
2023/04/12 01:44:15;;;;;;;7.90;2.80;;;8.20;99.90;;;;;;5079167;28;20478;-89
2023/04/12 01:46:46;;;;;;;8.45;2.90;;;8.20;99.90;;;;;;5074163;28;20696;-90
2023/04/12 01:49:12;;;;;;;8.80;3.28;;;8.30;99.90;;;;;;5070006;28;20047;-90
2023/04/12 01:51:49;;;;;;;8.05;3.20;;;8.30;99.90;;;;;;5087499;28;20075;-89
2023/04/12 01:54:28;;;;;;;8.93;2.88;;;8.30;99.90;;;;;;5082028;28;20065;-90
2023/04/12 01:56:57;;;;;;;9.85;2.95;;;8.30;99.90;;;;;;5083651;28;20517;-89
2023/04/12 01:59:33;;;;;;;8.68;3.13;;;8.30;99.90;;;;;;5068615;28;20040;-89
2023/04/12 02:01:59;;;;;;;7.13;2.90;;;8.30;99.90;;;;;;5086723;28;20073;-89
2023/04/12 02:04:26;;;;;;;7.20;2.78;;;8.40;99.90;;;;;;5085828;28;20032;-89
2023/04/12 02:06:54;;;;;;;8.57;2.85;;;8.40;99.90;;;;;;5086490;28;20055;-89
2023/04/12 02:09:21;;;;;;;8.43;2.45;;;8.40;99.90;;;;;;5070613;28;20044;-90
2023/04/12 02:11:47;;;;;;;5.47;2.53;;;8.40;99.90;;;;;;5069936;28;20139;-89
2023/04/12 02:14:14;;;;;;;5.97;3.63;;;8.40;99.90;;;;;;5099743;27;20051;-90
2023/04/12 02:16:41;;;;;;;7.15;2.70;;;8.40;99.90;;;;;;5077556;28;20051;-88
2023/04/12 02:19:07;;;;;;;5.57;2.90;;;8.40;99.90;;;;;;5078833;28;20064;-89
2023/04/12 02:21:44;;;;;;;9.73;2.85;;;8.40;99.90;;;;;;5100372;27;20124;-89
2023/04/12 02:24:11;;;;;;;5.68;2.63;;;8.40;99.90;;;;;;5085261;28;20043;-89
2023/04/12 02:26:37;;;;;;;8.57;2.97;;;8.40;99.90;;;;;;5082081;28;20036;-89
2023/04/12 02:29:07;;;;;;;9.80;2.70;;;8.30;99.90;;;;;;5066644;28;20040;-89
2023/04/12 02:31:37;;;;;;;9.93;2.90;;;8.30;99.90;;;;;;5085409;28;20054;-89
2023/04/12 02:34:06;;;;;;;9.20;3.05;;;8.40;99.90;;;;;;5083630;28;20051;-88
2023/04/12 02:36:36;;;;;;;8.50;2.80;;;8.40;99.90;;;;;;5102525;27;20056;-89
2023/04/12 02:39:02;;;;;;;8.75;2.50;;;8.40;99.90;;;;;;5082637;28;20035;-90
2023/04/12 02:41:28;;;;;;;7.95;2.53;;;8.40;99.90;;;;;;5069826;28;20028;-90
2023/04/12 02:43:54;;;;;;;7.22;2.67;;;8.40;99.90;;;;;;5067809;28;20109;-89
2023/04/12 02:46:23;;;;;;;9.95;2.70;;;8.40;99.90;;;;;;5063735;28;20051;-89
2023/04/12 02:48:51;;;;;;;6.22;2.80;;;8.40;99.90;;;;;;5083137;28;20032;-89
2023/04/12 02:51:17;;;;;;;6.20;2.60;;;8.30;99.90;;;;;;5080800;28;20046;-89
2023/04/12 02:53:43;;;;;;;10.25;2.30;;;8.30;99.90;;;;;;5079377;28;20549;-89
2023/04/12 02:56:09;;;;;;;9.38;2.65;;;8.40;99.90;;;;;;5067823;28;20036;-89
2023/04/12 02:58:35;;;;;;;7.25;2.50;;;8.30;99.90;;;;;;5081146;28;20498;-89
2023/04/12 03:01:01;;;;;;;8.00;2.72;;;8.30;99.90;;;;;;5068554;28;20061;-89
2023/04/12 03:03:27;;;;;;;5.15;2.38;;;8.40;99.90;;;;;;5083096;28;20040;-89
2023/04/12 03:05:57;;;;;;;5.30;2.67;;;8.40;99.90;;;;;;5065850;28;20035;-90
2023/04/12 03:08:22;;;;;;;9.93;2.13;;;8.40;99.90;;;;;;5068167;28;20259;-89
2023/04/12 03:10:48;;;;;;;9.18;2.35;;;8.40;99.90;;;;;;5070579;28;20159;-88
2023/04/12 03:13:14;;;;;;;5.45;2.17;;;8.40;99.90;;;;;;5081626;28;20452;-89
2023/04/12 03:15:40;;;;;;;4.22;2.05;;;8.40;99.90;;;;;;5081136;28;20035;-89
2023/04/12 03:18:06;;;;;;;7.50;2.40;;;8.40;99.90;;;;;;5069729;28;20036;-89
2023/04/12 03:20:32;;;;;;;6.60;2.20;;;8.40;99.90;;;;;;5082652;28;20096;-89
2023/04/12 03:23:00;;;;;;;5.45;2.00;;;8.40;99.90;;;;;;5065387;28;20497;-89
2023/04/12 03:25:26;;;;;;;7.95;2.60;;;8.40;99.90;;;;;;5085837;28;20498;-88
2023/04/12 03:27:52;;;;;;;7.07;1.98;;;8.40;99.90;;;;;;5083749;28;20047;-88
2023/04/12 03:30:17;;;;;;;4.78;2.08;;;8.40;99.90;;;;;;5083641;28;20035;-89
2023/04/12 03:32:43;;;;;;;7.75;2.72;;;8.50;99.90;;;;;;5070834;28;20317;-88
2023/04/12 03:35:10;;;;;;;5.45;2.10;;;8.50;99.90;;;;;;5066477;28;20036;-90
2023/04/12 03:37:36;;;;;;;5.25;2.13;;;8.50;99.90;;;;;;5080316;28;20052;-90
2023/04/12 03:40:03;;;;;;;7.22;2.30;;;8.50;99.90;;;;;;5066530;28;20214;-90
2023/04/12 03:42:29;;;;;;;5.32;1.80;;;8.50;99.90;;;;;;5082635;28;20208;-89
2023/04/12 03:44:55;;;;;;;6.55;2.13;;;8.50;99.90;;;;;;5066544;28;20131;-89
2023/04/12 03:47:21;;;;;;;7.85;1.60;;;8.50;99.90;;;;;;5089823;28;20054;-89
2023/04/12 03:49:47;;;;;;;7.13;1.92;;;8.50;99.90;;;;;;5082550;28;20487;-89
2023/04/12 03:52:12;;;;;;;5.43;2.30;;;8.50;99.90;;;;;;5077160;28;20037;-89
2023/04/12 03:54:39;;;;;;;8.40;2.20;;;8.50;99.90;;;;;;5081250;28;20111;-90
2023/04/12 03:57:08;;;;;;;4.88;2.00;;;8.40;99.90;;;;;;5084250;28;20070;-89
2023/04/12 03:59:33;;;;;;;6.45;1.90;;;8.40;99.90;;;;;;5068292;28;20156;-90
2023/04/12 04:02:00;;;;;;;5.85;2.22;;;8.40;99.90;;;;;;5082719;28;20123;-90
2023/04/12 04:04:26;;;;;;;6.95;2.17;;;8.40;99.90;;;;;;5065913;28;20992;-89
2023/04/12 04:06:52;;;;;;;8.65;2.20;;;8.30;99.90;;;;;;5077104;28;20456;-91
2023/04/12 04:09:18;;;;;;;5.95;2.40;;;8.30;99.90;;;;;;5079622;28;20115;-90
2023/04/12 04:11:48;;;;;;;5.78;2.38;;;8.30;99.90;;;;;;5085296;28;20045;-90
2023/04/12 04:14:14;;;;;;;6.53;2.10;;;8.30;99.90;;;;;;5082483;28;20119;-91
2023/04/12 04:16:40;;;;;;;5.25;2.60;;;8.30;99.90;;;;;;5064439;28;20123;-90
2023/04/12 04:19:05;;;;;;;6.43;2.08;;;8.30;99.90;;;;;;5083648;28;20047;-89
2023/04/12 04:21:31;;;;;;;6.55;2.22;;;8.30;99.90;;;;;;5084765;28;20032;-89
2023/04/12 04:24:00;;;;;;;5.18;2.58;;;8.20;99.90;;;;;;5081506;28;20506;-90
2023/04/12 04:26:32;;;;;;;4.50;2.25;;;8.30;99.90;;;;;;5070738;28;20451;-90
2023/04/12 04:29:00;;;;;;;6.13;2.28;;;8.30;99.90;;;;;;5083407;28;20119;-89
2023/04/12 04:31:33;;;;;;;7.22;2.65;;;8.20;99.90;;;;;;5066024;28;20493;-89
2023/04/12 04:34:00;;;;;;;5.78;2.30;;;8.20;99.90;;;;;;5067947;28;20123;-90
2023/04/12 04:36:26;;;;;;;6.95;2.60;;;8.10;99.90;;;;;;5081247;28;20088;-90
2023/04/12 04:38:51;;;;;;;11.07;2.45;;;8.20;99.90;;;;;;5067091;28;20044;-90
2023/04/12 04:41:21;;;;;;;6.03;2.53;;;8.20;99.90;;;;;;5066832;28;20157;-91
2023/04/12 04:43:47;;;;;;;7.55;2.60;;;8.20;99.90;;;;;;5078056;28;20047;-91
2023/04/12 04:46:13;;;;;;;5.45;2.70;;;8.10;99.90;;;;;;5095853;27;20043;-91
2023/04/12 04:48:40;;;;;;;7.00;2.90;;;8.10;99.90;;;;;;5078725;28;20052;-90
2023/04/12 04:51:06;;;;;;;10.02;3.20;;;8.10;99.90;;;;;;5066672;28;20040;-90
2023/04/12 04:53:31;;;;;;;7.93;2.92;;;8.10;99.90;;;;;;5065247;28;20060;-90
2023/04/12 04:55:58;;;;;;;9.05;3.10;;;8.10;99.90;;;;;;5079716;28;20036;-90
2023/04/12 04:58:24;;;;;;;5.95;2.72;;;8.10;99.90;;;;;;5094318;28;20048;-90
2023/04/12 05:00:49;;;;;;;6.70;3.05;;;8.00;99.90;;;;;;5084344;28;20040;-91
2023/04/12 05:03:15;;;;;;;10.07;3.13;;;8.00;99.90;;;;;;5069169;28;20032;-89
2023/04/12 05:05:41;;;;;;;7.68;3.13;;;8.10;99.90;;;;;;5067530;28;20395;-90
2023/04/12 05:08:06;;;;;;;9.77;3.35;;;8.10;99.90;;;;;;5080356;28;20119;-90
2023/04/12 05:10:32;;;;;;;8.93;3.10;;;8.00;99.90;;;;;;5066695;28;20045;-91
2023/04/12 05:12:58;;;;;;;6.85;3.47;;;8.00;99.90;;;;;;5063718;28;20046;-90
2023/04/12 05:15:23;;;;;;;9.60;3.58;;;8.00;99.90;;;;;;5067270;28;20188;-91
2023/04/12 05:17:49;;;;;;;10.80;4.25;;;8.00;99.90;;;;;;5065692;28;20032;-90
2023/04/12 05:20:15;;;;;;;6.22;3.08;;;8.00;99.90;;;;;;5066525;28;20165;-90
2023/04/12 05:22:44;;;;;;;7.13;3.65;;;8.00;99.90;;;;;;5067775;28;20032;-91
2023/04/12 05:25:09;;;;;;;8.43;3.55;;;8.00;99.90;;;;;;5084505;28;20467;-91
2023/04/12 05:27:35;;;;;;;6.85;3.20;;;8.00;99.90;;;;;;5084092;28;20032;-92
2023/04/12 05:30:01;;;;;;;7.40;3.47;;;8.00;99.90;;;;;;5078613;28;20039;-91
2023/04/12 05:32:26;;;;;;;7.80;3.15;;;8.00;99.90;;;;;;5084478;28;20499;-91
2023/04/12 05:34:52;;;;;;;10.15;3.38;;;8.00;99.90;;;;;;5084063;28;20127;-92
2023/04/12 05:37:17;;;;;;;10.20;3.47;;;8.00;99.90;;;;;;5066976;28;20048;-90
2023/04/12 05:39:43;;;;;;;7.47;3.38;;;8.00;99.90;;;;;;5066558;28;20044;-90
2023/04/12 05:42:12;;;;;;;5.28;2.97;;;8.00;99.90;;;;;;5065892;28;20036;-91
2023/04/12 05:44:38;;;;;;;8.63;3.60;;;8.00;99.90;;;;;;5080372;28;20097;-92
2023/04/12 05:47:04;;;;;;;6.55;3.13;;;8.00;99.90;;;;;;5068125;28;20044;-91
2023/04/12 05:49:30;;;;;;;7.15;3.08;;;8.00;99.90;;;;;;5103716;28;20474;-91
2023/04/12 05:51:57;;;;;;;4.85;2.95;;;8.00;99.90;;;;;;5065497;28;20041;-91
2023/04/12 05:54:24;;;;;;;7.65;3.50;;;8.10;99.90;;;;;;5084759;28;20063;-90
2023/04/12 05:56:51;;;;;;;7.68;2.80;;;8.10;99.90;;;;;;5063854;28;20136;-91
2023/04/12 05:59:18;;;;;;;5.40;2.92;;;8.10;99.90;;;;;;5063860;28;20337;-91
2023/04/12 06:01:44;;;;;;;6.93;2.63;;;8.10;99.90;;;;;;5080290;28;20148;-92
2023/04/12 06:04:10;;;;;;;6.57;2.80;;;8.20;99.90;;;;;;5090734;28;20131;-91
2023/04/12 06:06:36;;;;;;;9.80;2.90;;;8.20;99.90;;;;;;5065695;28;20536;-91
2023/04/12 06:09:05;;;;;;;7.50;3.58;;;8.10;99.90;;;;;;5082369;28;20035;-91
2023/04/12 06:11:34;;;;;;;8.35;2.92;;;8.20;99.90;;;;;;5090273;28;20036;-91
2023/04/12 06:14:00;;;;;;;9.25;2.97;;;8.10;99.90;;;;;;5083416;28;20055;-91
2023/04/12 06:16:26;;;;;;;5.28;3.13;;;8.10;99.90;;;;;;5067088;28;20032;-91
2023/04/12 06:18:52;;;;;;;8.40;2.78;;;8.20;99.90;;;;;;5085638;28;20047;-91
2023/04/12 06:21:18;;;;;;;7.78;2.85;;;8.10;99.90;;;;;;5073282;28;20054;-91
2023/04/12 06:23:44;;;;;;;4.30;3.03;;;8.10;99.90;;;;;;5083965;28;20049;-91
2023/04/12 06:26:10;;;;;;;9.27;3.05;;;8.10;99.90;;;;;;5084839;28;20039;-92
2023/04/12 06:28:36;;;;;;;7.45;3.10;;;8.10;99.90;;;;;;5068562;28;20440;-91
2023/04/12 06:31:02;;;;;;;6.30;3.03;;;8.20;99.90;;;;;;5079971;28;20066;-91
2023/04/12 06:33:27;;;;;;;8.40;2.90;;;8.20;99.90;;;;;;5069983;28;20150;-92
2023/04/12 06:35:53;;;;;;;4.50;2.78;;;8.10;99.90;;;;;;5071983;28;20132;-91
2023/04/12 06:38:19;;;;;;;8.20;2.63;;;8.10;99.90;;;;;;5081357;28;20044;-92
2023/04/12 06:40:45;;;;;;;6.85;2.95;;;8.10;99.90;;;;;;5082382;28;20205;-92
2023/04/12 06:43:11;;;;;;;6.28;2.60;;;8.20;99.90;;;;;;5082811;28;20028;-92
2023/04/12 06:45:40;;;;;;;7.50;2.70;;;8.20;99.90;;;;;;5087502;28;20036;-92
2023/04/12 06:48:05;;;;;;;6.63;2.70;;;8.20;99.90;;;;;;5073014;28;20031;-91
2023/04/12 06:50:31;;;;;;;9.60;3.28;;;8.10;99.90;;;;;;5082770;28;20533;-92
2023/04/12 06:52:57;;;;;;;7.18;3.75;;;8.20;99.90;;;;;;5084596;28;20487;-91
2023/04/12 06:55:22;;;;;;;7.32;3.42;;;8.20;99.90;;;;;;5085095;28;20047;-92
2023/04/12 06:57:50;;;;;;;5.88;3.13;;;8.20;99.90;;;;;;5082362;28;20055;-92
2023/04/12 07:00:20;;;;;;;8.68;3.00;;;8.20;99.90;;;;;;5087155;28;20097;-92
2023/04/12 07:02:45;;;;;;;8.15;3.03;;;8.20;99.90;;;;;;5083852;28;20619;-92
2023/04/12 07:05:11;;;;;;;5.43;2.90;;;8.20;99.90;;;;;;5067637;28;20044;-92
2023/04/12 07:07:40;;;;;;;7.65;3.08;;;8.20;99.90;;;;;;5068716;28;20135;-93
2023/04/12 07:10:06;;;;;;;7.75;2.95;;;8.20;99.90;;;;;;5084517;28;20531;-92
2023/04/12 07:12:32;;;;;;;7.30;3.10;;;8.20;99.90;;;;;;5066793;28;20048;-92
2023/04/12 07:14:58;;;;;;;5.82;2.97;;;8.30;99.90;;;;;;5078268;28;20032;-92
2023/04/12 07:17:27;;;;;;;7.80;2.85;;;8.20;99.90;;;;;;5064655;28;20139;-92
2023/04/12 07:19:53;;;;;;;8.10;2.90;;;8.20;99.90;;;;;;5097125;27;20043;-92
2023/04/12 07:22:19;;;;;;;4.97;3.10;;;8.30;99.90;;;;;;5087226;28;20032;-92
2023/04/12 07:24:50;;;;;;;5.68;2.85;;;8.30;99.90;;;;;;5065431;28;20067;-91
2023/04/12 07:27:16;;;;;;;4.88;2.97;;;8.30;99.90;;;;;;5069182;28;20107;-93
2023/04/12 07:29:42;;;;;;;5.70;2.90;;;8.30;99.90;;;;;;5078762;28;20850;-92
2023/04/12 07:32:08;;;;;;;7.15;3.20;;;8.30;99.90;;;;;;5085854;28;20043;-93
2023/04/12 07:34:35;;;;;;;4.78;3.30;;;8.30;99.90;;;;;;5086885;28;20460;-92
2023/04/12 07:37:01;;;;;;;4.75;2.72;;;8.30;99.90;;;;;;5069965;28;20059;-92
2023/04/12 07:39:28;;;;;;;5.43;3.30;;;8.40;99.90;;;;;;5084119;28;20039;-92
2023/04/12 07:41:54;;;;;;;6.32;3.20;;;8.40;99.90;;;;;;5070958;28;20209;-92
2023/04/12 07:44:20;;;;;;;4.00;2.90;;;8.40;99.90;;;;;;5071344;28;20044;-93
2023/04/12 07:46:46;;;;;;;4.45;3.13;;;8.40;99.90;;;;;;5068864;28;20043;-92
2023/04/12 07:49:12;;;;;;;5.22;3.50;;;8.40;99.90;;;;;;5066760;28;20042;-92
2023/04/12 07:51:41;;;;;;;5.07;3.17;;;8.40;99.90;;;;;;5068486;28;20148;-92
2023/04/12 07:54:07;;;;;;;9.52;3.50;;;8.40;99.90;;;;;;5050529;28;20036;-92
2023/04/12 07:56:36;;;;;;;6.70;3.10;;;8.50;99.90;;;;;;5083356;28;20124;-92
2023/04/12 07:59:02;;;;;;;6.00;3.30;;;8.40;99.90;;;;;;5067315;28;20047;-92
2023/04/12 08:01:27;;;;;;;7.32;3.50;;;8.50;99.90;;;;;;5062069;28;20036;-92
2023/04/12 08:03:53;;;;;;;6.22;3.50;;;8.50;99.90;;;;;;5082811;28;20628;-92
2023/04/12 08:06:19;;;;;;;6.35;3.20;;;8.50;99.90;;;;;;5083529;28;20040;-92
2023/04/12 08:08:44;;;;;;;6.32;3.17;;;8.50;99.90;;;;;;5069121;28;20399;-93
2023/04/12 08:11:10;;;;;;;7.15;3.40;;;8.50;99.90;;;;;;5086271;28;20114;-93
2023/04/12 08:13:36;;;;;;;5.30;3.10;;;8.50;99.90;;;;;;5084656;28;20089;-92
2023/04/12 08:16:02;;;;;;;4.55;3.35;;;8.60;99.90;;;;;;5062051;28;20043;-93
2023/04/12 08:18:28;;;;;;;5.65;3.80;;;8.60;99.90;;;;;;5082126;28;20036;-93
2023/04/12 08:20:57;;;;;;;4.80;3.67;;;8.60;99.90;;;;;;5067694;28;20506;-93
2023/04/12 08:23:23;;;;;;;4.05;3.40;;;8.70;99.90;;;;;;5082996;28;20059;-92
2023/04/12 08:25:49;;;;;;;5.82;3.72;;;8.80;99.90;;;;;;5067720;28;20046;-92
2023/04/12 08:28:15;;;;;;;5.82;3.80;;;8.80;99.90;;;;;;5067110;28;20336;-91
2023/04/12 08:30:44;;;;;;;4.78;3.70;;;8.70;99.90;;;;;;5067288;28;20043;-91
2023/04/12 08:33:12;;;;;;;5.18;3.40;;;8.80;99.90;;;;;;5068438;28;20036;-92
2023/04/12 08:35:38;;;;;;;7.45;3.97;;;8.70;99.90;;;;;;5068457;28;20046;-92
2023/04/12 08:38:06;;;;;;;7.18;3.60;;;8.70;99.90;;;;;;5070696;28;20118;-91
2023/04/12 08:40:32;;;;;;;5.72;3.50;;;8.70;99.90;;;;;;5078546;28;20028;-93
2023/04/12 08:43:04;;;;;;;5.10;3.85;;;8.70;99.90;;;;;;5072079;28;20130;-93
2023/04/12 08:45:33;;;;;;;7.32;3.55;;;8.80;99.90;;;;;;5081446;28;20050;-92
2023/04/12 08:48:01;;;;;;;6.10;3.65;;;8.70;99.90;;;;;;5083599;28;20031;-93
2023/04/12 08:50:27;;;;;;;5.10;3.25;;;8.80;99.90;;;;;;5085380;28;20043;-93
2023/04/12 08:52:54;;;;;;;6.53;3.70;;;9.00;99.90;;;;;;5086329;28;20310;-93
2023/04/12 08:55:20;;;;;;;5.65;3.58;;;9.10;99.90;;;;;;5082608;28;20514;-92
2023/04/12 08:57:47;;;;;;;5.53;3.58;;;9.10;99.90;;;;;;5065157;28;20119;-92
2023/04/12 09:00:14;;;;;;;4.40;3.83;;;9.20;99.90;;;;;;5085944;28;20044;-91
2023/04/12 09:02:44;;;;;;;6.97;4.65;;;9.20;99.90;;;;;;5083584;28;20507;-92
2023/04/12 09:05:11;;;;;;;4.78;4.28;;;9.30;99.90;;;;;;5070321;28;20031;-92
2023/04/12 09:07:37;;;;;;;6.18;4.72;;;9.30;99.90;;;;;;5065550;28;20045;-91
2023/04/12 09:10:03;;;;;;;5.25;4.60;;;9.40;99.90;;;;;;5080555;28;20346;-91
2023/04/12 09:12:29;;;;;;;8.57;4.63;;;9.50;99.90;;;;;;5086130;28;20053;-92
2023/04/12 09:15:13;;;;;;;6.00;4.90;;;9.50;99.90;;;;;;5069853;28;20036;-92
2023/04/12 09:17:40;;;;;;;5.55;4.53;;;9.40;99.90;;;;;;5080633;28;20040;-92
2023/04/12 09:20:26;;;;;;;6.68;4.43;;;9.50;99.90;;;;;;5079069;28;20569;-92
2023/04/12 09:22:54;;;;;;;7.13;4.45;;;9.70;99.90;;;;;;5079955;28;20135;-91
2023/04/12 09:25:40;;;;;;;6.68;4.85;;;9.60;99.90;;;;;;5082486;28;20127;-92
2023/04/12 09:28:32;;;;;;;5.47;4.53;;;9.70;99.90;;;;;;5083290;28;20036;-92
2023/04/12 09:30:59;;;;;;;6.13;4.85;;;9.70;99.90;;;;;;5068778;28;20124;-92
2023/04/12 09:33:42;;;;;;;6.10;5.00;;;9.60;99.90;;;;;;5066111;28;20101;-92
2023/04/12 09:36:12;;;;;;;7.13;5.65;;;9.60;99.90;;;;;;5087191;28;20101;-91
2023/04/12 09:38:38;;;;;;;7.88;5.43;;;9.70;99.90;;;;;;5083728;28;20044;-91
2023/04/12 09:41:21;;;;;;;7.30;5.57;;;10.00;99.90;;;;;;5086411;28;20047;-92
2023/04/12 09:43:47;;;;;;;6.90;5.88;;;10.30;99.90;;;;;;5070222;28;20093;-92
2023/04/12 09:46:13;;;;;;;7.10;6.05;;;10.60;99.90;;;;;;5086134;28;20055;-91
2023/04/12 09:48:40;;;;;;;7.03;6.35;;;10.90;99.90;;;;;;5084306;28;20047;-90
2023/04/12 09:51:06;;;;;;;7.38;6.75;;;11.20;99.90;;;;;;5070450;28;20040;-92
2023/04/12 09:53:40;;;;;;;6.45;5.75;;;11.20;99.90;;;;;;5069004;28;20166;-92
2023/04/12 09:56:08;;;;;;;7.47;5.22;;;11.00;99.90;;;;;;5070193;28;20069;-91
2023/04/12 09:58:36;;;;;;;6.97;5.60;;;10.90;99.90;;;;;;5083120;28;20036;-91
2023/04/12 10:01:03;;;;;;;6.65;5.30;;;10.90;99.90;;;;;;5100108;27;20059;-91
2023/04/12 10:03:32;;;;;;;5.43;4.88;;;10.90;99.90;;;;;;5085845;28;20055;-91
2023/04/12 10:05:58;;;;;;;5.80;5.22;;;11.10;99.90;;;;;;5069664;28;20039;-92
2023/04/12 10:08:25;;;;;;;7.97;5.03;;;11.10;99.90;;;;;;5069192;28;20040;-92
2023/04/12 10:10:56;;;;;;;5.60;5.05;;;11.10;99.90;;;;;;5084961;28;20506;-92
2023/04/12 10:13:23;;;;;;;7.47;5.35;;;11.20;99.90;;;;;;5088610;28;20104;-91
2023/04/12 10:15:50;;;;;;;6.30;4.70;;;11.30;99.90;;;;;;5086997;28;20119;-90
2023/04/12 10:18:17;;;;;;;9.38;5.32;;;11.30;99.90;;;;;;5070880;28;20039;-92
2023/04/12 10:20:45;;;;;;;9.13;5.00;;;11.60;99.90;;;;;;5083977;28;20491;-91
2023/04/12 10:23:11;;;;;;;6.80;4.55;;;11.80;99.90;;;;;;5066140;28;20166;-91
2023/04/12 10:25:40;;;;;;;7.60;4.97;;;11.90;99.90;;;;;;5071107;28;20104;-92
2023/04/12 10:28:14;;;;;;;7.93;4.30;;;12.00;99.90;;;;;;5087399;28;20335;-91
2023/04/12 10:30:40;;;;;;;5.43;4.50;;;12.10;99.90;;;;;;5083366;28;20040;-91
2023/04/12 10:33:09;;;;;;;6.60;4.65;;;12.10;99.90;;;;;;5069640;28;20028;-91
2023/04/12 10:35:59;;;;;;;7.20;4.28;;;12.30;99.90;;;;;;5070101;28;20075;-92
2023/04/12 10:38:30;;;;;;;7.43;4.45;;;12.40;99.90;;;;;;5082071;28;20047;-92
2023/04/12 10:41:14;;;;;;;7.28;4.28;;;12.00;99.90;;;;;;5068878;28;20467;-91
2023/04/12 10:43:41;;;;;;;9.52;4.20;;;12.70;99.90;;;;;;5103482;27;20039;-91
2023/04/12 10:46:07;;;;;;;8.02;3.60;;;12.60;99.90;;;;;;5069953;28;20024;-92
2023/04/12 10:48:51;;;;;;;5.65;4.05;;;13.00;99.90;;;;;;5085764;28;20046;-91
2023/04/12 10:51:24;;;;;;;8.90;3.70;;;13.40;99.90;;;;;;5067857;28;20044;-91
2023/04/12 10:54:10;;;;;;;7.90;3.58;;;13.30;99.90;;;;;;5085079;28;20087;-91
2023/04/12 10:56:40;;;;;;;6.85;3.10;;;13.50;99.90;;;;;;5061916;28;20052;-91
2023/04/12 10:59:07;;;;;;;10.13;3.28;;;13.70;99.90;;;;;;5082829;28;20085;-91
2023/04/12 11:01:34;;;;;;;7.30;3.28;;;13.30;99.90;;;;;;5069388;28;20067;-91
2023/04/12 11:04:20;;;;;;;8.85;3.67;;;13.60;99.90;;;;;;5088827;28;20025;-91
2023/04/12 11:06:51;;;;;;;11.18;3.80;;;14.00;99.90;;;;;;5083216;28;20128;-91
2023/04/12 11:09:29;;;;;;;8.57;3.33;;;13.70;99.90;;;;;;5086148;28;20082;-91
2023/04/12 11:12:10;;;;;;;6.97;3.35;;;14.10;99.90;;;;;;5106073;27;20157;-91
2023/04/12 11:14:37;;;;;;;9.77;3.63;;;14.10;99.90;;;;;;5080826;28;20139;-91
2023/04/12 11:17:06;;;;;;;6.07;3.40;;;14.00;99.90;;;;;;5071792;28;20130;-91
2023/04/12 11:19:32;;;;;;;12.40;3.58;;;13.80;99.90;;;;;;5085748;28;20045;-91
2023/04/12 11:22:03;;;;;;;7.10;3.45;;;13.70;99.90;;;;;;5084796;28;20040;-92
2023/04/12 11:24:29;;;;;;;11.07;2.80;;;14.20;99.90;;;;;;5083275;28;20099;-91
2023/04/12 11:26:56;;;;;;;11.75;3.85;;;14.40;99.90;;;;;;5071192;28;20123;-91
2023/04/12 11:29:26;;;;;;;8.50;2.85;;;14.20;99.90;;;;;;5078757;28;20163;-90
2023/04/12 11:31:52;;;;;;;8.02;2.65;;;14.20;99.90;;;;;;5081736;28;20047;-91
2023/04/12 11:34:18;;;;;;;8.07;3.20;;;14.40;99.90;;;;;;5084947;28;20043;-90
2023/04/12 11:37:08;;;;;;;7.95;2.88;;;14.30;99.90;;;;;;5081317;28;20105;-91
2023/04/12 11:39:37;;;;;;;6.43;2.70;;;14.40;99.90;;;;;;5067647;28;20080;-91
2023/04/12 11:42:03;;;;;;;7.45;2.75;;;14.20;99.90;;;;;;5084729;28;20276;-90
2023/04/12 11:44:32;;;;;;;7.15;2.50;;;14.20;99.90;;;;;;5066767;28;20077;-91
2023/04/12 11:46:58;;;;;;;8.70;2.63;;;14.50;99.90;;;;;;5080436;28;20409;-90
2023/04/12 11:49:23;;;;;;;7.25;2.40;;;14.30;99.90;;;;;;5065344;28;20040;-91
2023/04/12 11:51:59;;;;;;;12.13;2.42;;;14.20;99.90;;;;;;5081974;28;20498;-90
2023/04/12 11:54:29;;;;;;;9.90;2.50;;;14.20;99.90;;;;;;5068433;28;20040;-91
2023/04/12 11:56:57;;;;;;;10.15;2.50;;;14.20;99.90;;;;;;5084515;28;20059;-91
2023/04/12 11:59:30;;;;;;;9.05;2.72;;;14.20;99.90;;;;;;5081908;28;20047;-91
2023/04/12 12:01:57;;;;;;;8.50;2.53;;;14.40;99.90;;;;;;5067463;28;20072;-91
2023/04/12 12:04:23;;;;;;;8.93;2.20;;;14.60;99.90;;;;;;5081267;28;20525;-91
2023/04/12 12:06:48;;;;;;;8.63;2.33;;;14.60;99.90;;;;;;5082899;28;20131;-90
2023/04/12 12:09:14;;;;;;;9.85;2.83;;;14.60;99.90;;;;;;5067334;28;20055;-90
2023/04/12 12:11:40;;;;;;;11.18;2.40;;;14.40;99.90;;;;;;5072177;28;20487;-90
2023/04/12 12:14:07;;;;;;;9.70;2.42;;;14.40;99.90;;;;;;5083883;28;20108;-91
2023/04/12 12:16:35;;;;;;;9.10;2.67;;;14.60;99.90;;;;;;5065889;28;20161;-90
2023/04/12 12:19:04;;;;;;;10.40;2.35;;;14.50;99.90;;;;;;5081493;28;20457;-90
2023/04/12 12:21:30;;;;;;;10.00;2.97;;;14.30;99.90;;;;;;5082007;28;20046;-90
2023/04/12 12:23:57;;;;;;;12.18;2.80;;;14.20;1.00;;;;;;5078452;28;20040;-91
2023/04/12 12:26:27;;;;;;;14.90;3.42;;;14.80;99.90;;;;;;5066490;28;20044;-84
2023/04/12 12:29:01;;;;;;;14.05;3.50;;;15.00;99.90;;;;;;5063195;28;20383;-84
2023/04/12 12:31:27;;;;;;;14.20;3.10;;;14.90;16.60;;;;;;5079471;28;20047;-84
2023/04/12 12:33:55;;;;;;;12.82;2.85;;;14.80;99.90;;;;;;5077986;28;20048;-83
2023/04/12 12:36:28;;;;;;;9.60;2.50;;;15.00;99.90;;;;;;5079046;28;20415;-83
2023/04/12 12:38:54;;;;;;;10.88;2.92;;;15.10;99.90;;;;;;5077758;28;20040;-84
2023/04/12 12:41:23;;;;;;;11.65;2.70;;;14.80;99.90;;;;;;5081007;28;20040;-84
2023/04/12 12:43:51;;;;;;;11.30;2.58;;;14.60;99.90;;;;;;5076674;28;20792;-84
2023/04/12 12:46:18;;;;;;;10.68;3.45;;;14.30;99.90;;;;;;5062144;28;20029;-83
2023/04/12 12:48:47;;;;;;;14.30;3.05;;;14.30;99.90;;;;;;5080051;28;20574;-84
2023/04/12 12:51:19;;;;;;;8.20;2.72;;;14.40;99.90;;;;;;5078349;28;20040;-83
2023/04/12 12:53:45;;;;;;;8.43;2.30;;;14.20;36.20;;;;;;5075059;28;20135;-83
2023/04/12 12:56:12;;;;;;;8.35;2.60;;;13.90;99.90;;;;;;5077539;28;20105;-83
2023/04/12 12:58:41;;;;;;;13.80;2.72;;;13.90;99.90;;;;;;5058733;28;20048;-84